• Join FlightAware (Why Join?)
  • Login
  • US Flag 
08:14PM EDT


 

Airport Tracker/Info


-or-


 

Live Flight TrackerFlight Track Log ✈ GJS3707 ✈ 20-Jul-2013 ✈ KBOI - KORD

Flight Track Log - Related Links

Times and Time Zones

All times are in EDT time to prevent confusion due to time zone crossing. See the GJS3707 flight status page for this flight to view local times or setup timezone preferences in your user account.

Time Position Orientation Groundspeed Altitude Reporting Facility
EDT Latitude Longitude Course Direction KTS MPH feet Rate Location/Type
03:16PM 43.6169 -116.3797 297° West 219 252 6,900  Level Salt Lake Center
03:17PM 43.6348 -115.7019 82° East  Level FlightAware Approximate
03:17PM 43.6708 -116.3550 18° North 245 282 8,500  Level Salt Lake Center
03:18PM 43.6575 -115.5277 65° Northeast  Level FlightAware Approximate
03:18PM 43.6875 -116.2594 76° East 268 308 9,800  Level Salt Lake Center
03:19PM 43.6756 -115.3533 81° East  Level FlightAware Approximate
03:19PM 43.7036 -116.1250 81° East 309 356 11,500  Level Salt Lake Center
03:20PM 43.7058 -115.1817 81° East  Level FlightAware Approximate
03:20PM 43.7175 -116.0036 81° East 330 380 13,300  Level Salt Lake Center
03:21PM 43.7347 -115.8567 81° East 347 399 15,200 1,680 Climbing Salt Lake Center
03:22PM 43.7489 -115.7239 82° East 363 418 16,800 1,860 Climbing Salt Lake Center
03:23PM 43.7669 -115.5675 81° East 369 425 19,100 1,800 Climbing Salt Lake Center
03:24PM 43.7825 -115.4333 81° East 371 427 20,600 1,500 Climbing Salt Lake Center
03:25PM 43.8003 -115.2686 81° East 386 444 22,200 1,500 Climbing Salt Lake Center
03:26PM 43.8153 -115.1242 82° East 395 455 23,800 1,500 Climbing Salt Lake Center
03:27PM 43.8344 -114.9514 81° East 407 468 25,400 1,380 Climbing Salt Lake Center
03:28PM 43.8506 -114.8019 81° East 412 474 26,700 1,080 Climbing Salt Lake Center
03:29PM 43.8683 -114.6211 82° East 427 491 27,700 840 Climbing Salt Lake Center
03:30PM 43.8847 -114.4592 82° East 443 510 28,500 840 Climbing Salt Lake Center
03:31PM 43.9050 -114.2664 82° East 454 522 29,500 900 Climbing Salt Lake Center
03:32PM 43.9211 -114.0967 82° East 462 532 30,400 960 Climbing Salt Lake Center
03:34PM 43.9408 -113.9008 82° East 464 534 31,600 960 Climbing Salt Lake Center
03:35PM 43.9589 -113.7192 82° East 471 542 32,400 660 Climbing Salt Lake Center
03:36PM 43.9742 -113.5442 83° East 478 550 33,000 660 Climbing Salt Lake Center
03:37PM 43.9908 -113.3372 84° East 483 556 33,800 720 Climbing Salt Lake Center
03:38PM 44.0064 -113.1597 83° East 484 557 34,500 720 Climbing Salt Lake Center
03:39PM 44.0272 -112.9522 82° East 487 560 35,300 720 Climbing Salt Lake Center
03:40PM 44.0408 -112.7728 84° East 488 562 36,000 660 Climbing Salt Lake Center
03:41PM 44.0561 -112.5939 83° East 488 562 36,700 480 Climbing Salt Lake Center
03:42PM 44.0739 -112.3864 83° East 486 559 37,000 120 Climbing Salt Lake Center
03:43PM 44.0878 -112.2031 84° East 497 572 37,000  Level Salt Lake Center
03:44PM 44.0906 -111.9847 89° East 506 582 37,000 180 Level Salt Lake Center
03:45PM 44.0919 -111.7925 89° East 518 596 37,400 720 Climbing Salt Lake Center
03:46PM 44.0928 -111.5728 90° East 513 590 38,500 780 Climbing Salt Lake Center
03:47PM 44.0931 -111.3917 90° East 498 573 39,000 240 Climbing Salt Lake Center
03:48PM 44.0931 -111.1822 90° East 490 564 39,000  Level Salt Lake Center
03:49PM 44.0928 -111.0019 90° East 490 564 39,000  Level Salt Lake Center
03:50PM 44.0925 -110.7928 90° East 489 563 39,000  Level Salt Lake Center
03:51PM 44.0919 -110.6147 90° East 485 558 39,000  Level Salt Lake Center
03:52PM 44.0933 -110.4039 89° East 488 562 39,000  Level Salt Lake Center
03:53PM 44.0914 -110.2244 91° East 486 559 39,000  Level Salt Lake Center
03:54PM 44.0892 -110.0164 91° East 484 557 39,000  Level Salt Lake Center
03:55PM 44.0883 -109.8356 90° East 488 562 39,000  Level Salt Lake Center
03:56PM 44.0847 -109.6267 91° East 487 560 39,000  Level Salt Lake Center
03:57PM 44.0825 -109.4572 91° East 487 560 39,000  Level Salt Lake Center
03:58PM 44.0792 -109.2700 91° East 487 560 39,000  Level Salt Lake Center
03:59PM 44.0758 -109.0433 91° East 490 564 39,000  Level Salt Lake Center
04:00PM 44.0719 -108.8575 92° East 486 559 39,000  Level Salt Lake Center
04:01PM 44.0689 -108.6722 91° East 483 556 39,000  Level Salt Lake Center
04:02PM 44.0639 -108.4858 92° East 485 558 39,000  Level Salt Lake Center
04:03PM 44.0603 -108.2994 91° East 486 559 39,000  Level Salt Lake Center
04:04PM 44.0544 -108.1131 92° East 486 559 39,000  Level Salt Lake Center
04:05PM 44.0494 -107.8889 92° East 486 559 39,000  Level Salt Lake Center
04:07PM 44.0594 -107.7022 86° East 489 563 39,000  Level Salt Lake Center
04:08PM 44.0692 -107.5158 86° East 489 563 39,000  Level Salt Lake Center
04:09PM 44.0797 -107.3300 85° East 487 560 39,000  Level Salt Lake Center
04:10PM 44.0914 -107.1431 85° East 488 562 39,000  Level Salt Lake Center
04:11PM 44.1033 -106.9556 85° East 490 564 39,000  Level Salt Lake Center
04:12PM 44.1178 -106.7311 85° East 488 562 39,000  Level Salt Lake Center
04:13PM 44.1297 -106.5472 85° East 482 555 39,000  Level Salt Lake Center
04:14PM 44.1431 -106.3608 84° East 486 559 39,000  Level Salt Lake Center
04:15PM 44.1547 -106.1742 85° East 486 559 39,000  Level Salt Lake Center
04:15PM 44.1597 -106.0867 85° East 485 558 39,000  Level Denver Center
04:17PM 44.1731 -105.8506 85° East 480 552 39,000  Level Denver Center
04:18PM 44.1881 -105.6139 85° East 481 554 39,000  Level Denver Center
04:19PM 44.1983 -105.4372 85° East 479 551 39,000  Level Denver Center
04:20PM 44.2081 -105.2608 86° East 477 549 39,000  Level Denver Center
04:21PM 44.2239 -105.0561 84° East 477 549 39,000  Level Denver Center
04:22PM 44.2372 -104.8803 84° East 476 548 39,000  Level Denver Center
04:23PM 44.2517 -104.6753 84° East 476 548 39,000  Level Denver Center
04:24PM 44.2653 -104.5006 84° East 474 545 39,000  Level Denver Center
04:25PM 44.2789 -104.2928 85° East 482 555 39,000  Level Denver Center
04:26PM 44.2933 -104.1144 83° East 484 557 39,000  Level Denver Center
04:27PM 44.3083 -103.9383 83° East 478 550 39,000  Level Denver Center
04:28PM 44.3250 -103.7286 84° East 483 556 39,000  Level Denver Center
04:29PM 44.3408 -103.5517 83° East 482 555 39,000  Level Denver Center
04:30PM 44.3561 -103.3425 84° East 484 557 39,000  Level Denver Center
04:31PM 44.3711 -103.1686 83° East 481 554 39,000  Level Denver Center
04:32PM 44.3881 -102.9808 83° East 484 557 39,000  Level Denver Center
04:33PM 44.4036 -102.7936 83° East 487 560 39,000  Level Denver Center
04:34PM 44.4072 -102.5658 89° East 492 566 39,000  Level Denver Center
04:35PM 44.3889 -102.3775 98° East 498 573 39,000  Level Denver Center
04:36PM 44.3700 -102.1897 98° East 492 566 39,000  Level Denver Center
04:37PM 44.3486 -102.0042 99° East 489 563 39,000  Level Denver Center
04:38PM 44.3264 -101.8181 99° East 487 560 39,000  Level Denver Center
04:39PM 44.3058 -101.6336 99° East 486 559 39,000  Level Denver Center
04:40PM 44.2836 -101.4492 99° East 484 557 39,000  Level Denver Center
04:41PM 44.2544 -101.2697 103° East 481 554 39,000  Level Minneapolis Center
04:42PM 44.2028 -101.0550 108° East 481 554 39,000  Level Denver Center
04:43PM 44.1711 -100.8767 104° East 483 556 39,000  Level Minneapolis Center
04:44PM 44.1533 -100.6919 98° East 484 557 39,000  Level Minneapolis Center
04:45PM 44.1339 -100.5075 98° East 484 557 39,000  Level Minneapolis Center
04:46PM 44.1136 -100.3256 99° East 481 554 39,000  Level Minneapolis Center
04:47PM 44.0931 -100.1453 99° East 477 549 39,000  Level Minneapolis Center
04:49PM 44.0714 -99.9644 99° East 476 548 39,000  Level Minneapolis Center
04:50PM 44.0447 -99.7478 100° East 477 549 39,000  Level Minneapolis Center
04:51PM 44.0233 -99.5636 99° East 480 552 39,000  Level Minneapolis Center
04:52PM 44.0019 -99.3786 99° East 484 557 39,000  Level Minneapolis Center
04:53PM 43.9800 -99.1958 99° East 484 557 39,000  Level Minneapolis Center
04:54PM 43.9572 -99.0136 100° East 483 556 39,000  Level Minneapolis Center
04:55PM 43.9286 -98.7972 100° East 480 552 39,000  Level Minneapolis Center
04:56PM 43.9006 -98.5811 100° East 479 551 39,000  Level Minneapolis Center
04:57PM 43.8744 -98.3986 101° East 481 554 39,000  Level Minneapolis Center
04:58PM 43.8497 -98.2131 100° East 486 559 39,000  Level Minneapolis Center
04:59PM 43.8247 -98.0272 101° East 490 564 39,000  Level Minneapolis Center
05:00PM 43.8008 -97.8411 100° East 493 567 39,000  Level Minneapolis Center
05:01PM 43.7706 -97.6206 101° East 489 563 39,000  Level Minneapolis Center
05:02PM 43.7444 -97.4383 101° East 487 560 39,000  Level Minneapolis Center
05:03PM 43.7181 -97.2553 101° East 488 562 39,000  Level Minneapolis Center
05:04PM 43.6869 -97.0369 101° East 486 559 39,000  Level Minneapolis Center
05:05PM 43.6603 -96.8556 101° East 486 559 39,000  Level Minneapolis Center
05:06PM 43.6339 -96.6742 101° East 486 559 39,000  Level Minneapolis Center
05:07PM 43.6075 -96.4944 101° East 484 557 39,000  Level Minneapolis Center
05:08PM 43.5806 -96.3150 102° East 483 556 39,000  Level Minneapolis Center
05:09PM 43.5544 -96.1381 101° East 479 551 39,000  Level Minneapolis Center
05:10PM 43.5228 -95.9264 102° East 476 548 39,000  Level Minneapolis Center
05:12PM 43.4956 -95.7517 102° East 471 542 39,000  Level Minneapolis Center
05:13PM 43.4683 -95.5761 102° East 473 544 39,000  Level Minneapolis Center
05:14PM 43.4400 -95.3958 102° East 482 555 39,000  Level Minneapolis Center
05:15PM 43.4142 -95.2161 101° East 484 557 39,000  Level Minneapolis Center
05:16PM 43.4044 -94.9925 93° East 489 563 39,000  Level Minneapolis Center
05:17PM 43.3950 -94.8061 94° East 491 565 39,000  Level Minneapolis Center
05:18PM 43.3850 -94.6222 94° East 486 559 39,000  Level Minneapolis Center
05:19PM 43.3747 -94.4369 94° East 487 560 39,000  Level Minneapolis Center
05:20PM 43.3633 -94.2461 95° East 484 557 39,000  Level Minneapolis Center
05:21PM 43.3506 -94.0625 95° East 486 559 39,000  Level Minneapolis Center
05:22PM 43.3400 -93.8797 94° East 485 558 39,000  Level Minneapolis Center
05:23PM 43.3289 -93.6978 95° East 484 557 39,000  Level Minneapolis Center
05:24PM 43.3158 -93.4828 95° East 478 550 39,000  Level Minneapolis Center
05:25PM 43.3047 -93.3006 95° East 480 552 39,000  Level Minneapolis Center
05:26PM 43.2928 -93.1175 95° East 484 557 39,000  Level Minneapolis Center
05:27PM 43.2800 -92.9353 95° East 484 557 39,000 -540 Level Minneapolis Center
05:28PM 43.2681 -92.7558 95° East 481 554 38,000 -1,200 Descending Minneapolis Center
05:29PM 43.2517 -92.5361 96° East 484 557 36,600 -1,260 Descending Minneapolis Center
05:30PM 43.2381 -92.3500 96° East 492 566 35,400 -1,200 Descending Minneapolis Center
05:31PM 43.2244 -92.1606 96° East 500 575 34,200 -1,260 Descending Minneapolis Center
05:32PM 43.2111 -91.9706 95° East 502 578 32,900 -1,260 Descending Minneapolis Center
05:33PM 43.1972 -91.7800 96° East 504 580 31,600 -960 Descending Minneapolis Center
05:34PM 43.1625 -91.5914 104° East 518 596 31,000 -300 Descending Minneapolis Center
05:35PM 43.1022 -91.4150 115° Southeast 513 590 31,000  Level Minneapolis Center
05:36PM 43.0392 -91.2375 116° Southeast 520 598 31,000  Level Chicago Center
05:37PM 42.9758 -91.0533 115° Southeast 533 613 31,000  Level Chicago Center
05:38PM 42.9128 -90.8700 115° Southeast 539 620 31,000 -60 Level Chicago Center
05:39PM 42.8481 -90.6883 116° Southeast 537 618 30,900 -540 Descending Chicago Center
05:40PM 42.7831 -90.5081 116° Southeast 535 616 29,900 -1,020 Descending Chicago Center
05:41PM 42.7206 -90.3364 116° Southeast 517 595 28,900 -1,020 Descending Chicago Center
05:42PM 42.6603 -90.1650 116° Southeast 509 586 27,900 -1,080 Descending Chicago Center
05:43PM 42.6106 -89.9528 108° East 503 579 26,700 -1,080 Descending Chicago Center
05:44PM 42.5814 -89.7722 102° East 493 567 25,700 -1,020 Descending Chicago Center
05:45PM 42.5528 -89.5933 102° East 489 563 24,700 -1,020 Descending Chicago Center
05:46PM 42.5239 -89.4122 102° East 491 565 23,700 -1,020 Descending Chicago Center
05:47PM 42.4958 -89.2347 102° East 486 559 22,700 -2,400 Descending Chicago Center
05:48PM 42.4631 -89.0350 102° East 471 542 18,800 -3,420 Descending Chicago Center
05:49PM 42.4364 -88.8706 102° East 453 521 15,800 -2,940 Descending Chicago Center
05:50PM 42.4100 -88.7147 103° East 431 496 12,800 -2,640 Descending Chicago Center
05:51PM 42.3858 -88.5697 103° East 401 461 10,500 -1,380 Descending Chicago Center
05:53PM 42.3561 -88.4378 107° East 375 432 10,000 -300 Descending Chicago Center
05:54PM 42.2936 -88.3119 124° Southeast 374 430 10,000 -60 Level Chicago Center
05:55PM 42.2283 -88.2039 129° Southeast 375 432 9,900 -540 Descending Chicago Center
05:56PM 42.1669 -88.1133 132° Southeast 341 392 9,000 -1,260 Descending Chicago Center
05:56PM 42.1167 -88.0500 137° Southeast 304 350 7,800 -1,320 Descending Chicago TRACON
05:57PM 42.1000 -87.9667 105° East 281 323 6,900 -420 Descending Chicago TRACON
05:58PM 42.1000 -87.8667 90° East 254 292 7,000 -420 Climbing Chicago TRACON
05:59PM 42.0833 -87.7833 105° East 243 280 6,100 -1,020 Descending Chicago TRACON
06:00PM 42.0911 -87.7389 77° East 249 287 5,500 -1,200 Descending Chicago Center
06:01PM 42.0583 -87.6800 127° Southeast 240 276 4,300 -1,200 Descending Chicago Center
06:02PM 42.0131 -87.7297 219° Southwest 221 254 3,100 -1,200 Descending Chicago Center